N94SI LIPB-LIMC
Flight info
| Callsign | N94SI |
|---|---|
| Flight time | N/A |
| Altitude | 18000 |
| Route | ADOSA L615 OSKOR/N0412F170 L615 PEXUG |
| Aircraft | C700/M-SBDGHM1RWXY/LB2 |
Departure
| Time | 2026-04-20 15:16 |
|---|---|
| Airport | Bolzano Airport (LIPB) |
Arrival
| Time | N/A |
|---|---|
| Airport | Milan Malpensa International Airport (LIMC) |
| Time | Latitude | Longitude | Altitude | Speed | Heading |
|---|---|---|---|---|---|
| 2026-04-20 15:06 | 46.46249 | 11.32889 | 809 ft | 0 kts | 101° |
| 2026-04-20 15:13 | 46.46247 | 11.32892 | 782 ft | 2 kts | 116° |
| 2026-04-20 15:14 | 46.46235 | 11.32838 | 782 ft | 14 kts | 302° |
| 2026-04-20 15:14 | 46.46328 | 11.32841 | 782 ft | 20 kts | 9° |
| 2026-04-20 15:14 | 46.46503 | 11.32885 | 782 ft | 25 kts | 12° |
| 2026-04-20 15:14 | 46.46631 | 11.32922 | 782 ft | 17 kts | 11° |
| 2026-04-20 15:15 | 46.46679 | 11.32886 | 783 ft | 8 kts | 285° |
| 2026-04-20 15:15 | 46.46674 | 11.32814 | 785 ft | 7 kts | 205° |
| 2026-04-20 15:15 | 46.46522 | 11.32775 | 785 ft | 59 kts | 189° |
| 2026-04-20 15:15 | 46.45767 | 11.32575 | 844 ft | 154 kts | 190° |
| 2026-04-20 15:16 | 46.44536 | 11.32230 | 1578 ft | 208 kts | 190° |
| 2026-04-20 15:16 | 46.42947 | 11.31876 | 2861 ft | 242 kts | 189° |
| 2026-04-20 15:16 | 46.41288 | 11.31335 | 4675 ft | 247 kts | 194° |
| 2026-04-20 15:16 | 46.39607 | 11.30784 | 6428 ft | 255 kts | 193° |
| 2026-04-20 15:17 | 46.37824 | 11.30313 | 8194 ft | 258 kts | 193° |
| 2026-04-20 15:17 | 46.36050 | 11.29839 | 9978 ft | 260 kts | 194° |
| 2026-04-20 15:17 | 46.34267 | 11.29329 | 11697 ft | 261 kts | 196° |
| 2026-04-20 15:17 | 46.32490 | 11.28829 | 13644 ft | 258 kts | 197° |
| 2026-04-20 15:18 | 46.30762 | 11.28341 | 15270 ft | 255 kts | 199° |
| 2026-04-20 15:18 | 46.29097 | 11.27524 | 16651 ft | 252 kts | 215° |
| 2026-04-20 15:18 | 46.27536 | 11.26293 | 17856 ft | 264 kts | 218° |
| 2026-04-20 15:18 | 46.25838 | 11.25052 | 17984 ft | 277 kts | 213° |
| 2026-04-20 15:19 | 46.24063 | 11.24016 | 17991 ft | 273 kts | 210° |
| 2026-04-20 15:19 | 46.22321 | 11.22999 | 17990 ft | 269 kts | 212° |
| 2026-04-20 15:19 | 46.20515 | 11.21833 | 17992 ft | 307 kts | 213° |
| 2026-04-20 15:19 | 46.18403 | 11.20466 | 17996 ft | 356 kts | 211° |
| 2026-04-20 15:20 | 46.16048 | 11.19047 | 17985 ft | 374 kts | 209° |
| 2026-04-20 15:20 | 46.13617 | 11.17594 | 17976 ft | 381 kts | 210° |
| 2026-04-20 15:20 | 46.11165 | 11.16085 | 17973 ft | 388 kts | 208° |
| 2026-04-20 15:20 | 46.08529 | 11.14941 | 17968 ft | 401 kts | 200° |
| 2026-04-20 15:21 | 46.05841 | 11.13901 | 17960 ft | 400 kts | 201° |
| 2026-04-20 15:21 | 46.03118 | 11.12994 | 17944 ft | 407 kts | 192° |
| 2026-04-20 15:21 | 46.00262 | 11.13003 | 17933 ft | 415 kts | 180° |
| 2026-04-20 15:21 | 45.97393 | 11.13404 | 17934 ft | 412 kts | 182° |
| 2026-04-20 15:22 | 45.94576 | 11.13025 | 17923 ft | 403 kts | 197° |
| 2026-04-20 15:22 | 45.91857 | 11.12122 | 17927 ft | 402 kts | 198° |
| 2026-04-20 15:22 | 45.89119 | 11.11216 | 17935 ft | 403 kts | 199° |
| 2026-04-20 15:22 | 45.86409 | 11.10257 | 17937 ft | 401 kts | 199° |
| 2026-04-20 15:23 | 45.83702 | 11.09283 | 17932 ft | 402 kts | 199° |
| 2026-04-20 15:23 | 45.80985 | 11.08346 | 17923 ft | 398 kts | 199° |
| 2026-04-20 15:23 | 45.78290 | 11.07430 | 17932 ft | 403 kts | 199° |